sensor_id;sensor_type;location;lat;lon;timestamp;pressure;altitude;pressure_sealevel;temperature;humidity
41260;BME280;26993;48.958;9.330;2022-12-18T00:01:59;99684.69;;;-9.31;93.12
41260;BME280;26993;48.958;9.330;2022-12-18T00:04:46;99692.75;;;-9.43;93.76
41260;BME280;26993;48.958;9.330;2022-12-18T00:07:32;99691.44;;;-9.39;94.02
41260;BME280;26993;48.958;9.330;2022-12-18T00:10:19;99688.78;;;-9.32;93.85
41260;BME280;26993;48.958;9.330;2022-12-18T00:13:06;99693.06;;;-9.39;93.80
41260;BME280;26993;48.958;9.330;2022-12-18T00:15:52;99697.47;;;-9.11;94.61
41260;BME280;26993;48.958;9.330;2022-12-18T00:18:41;99695.69;;;-9.12;94.60
41260;BME280;26993;48.958;9.330;2022-12-18T00:21:29;99699.34;;;-8.99;94.86
41260;BME280;26993;48.958;9.330;2022-12-18T00:24:16;99690.84;;;-9.10;95.31
41260;BME280;26993;48.958;9.330;2022-12-18T00:27:02;99697.03;;;-9.24;95.61
41260;BME280;26993;48.958;9.330;2022-12-18T00:29:49;99697.75;;;-9.07;95.60
41260;BME280;26993;48.958;9.330;2022-12-18T00:32:36;99689.81;;;-9.03;96.17
41260;BME280;26993;48.958;9.330;2022-12-18T00:35:24;99687.44;;;-8.93;96.49
41260;BME280;26993;48.958;9.330;2022-12-18T00:38:10;99690.13;;;-8.91;96.37
41260;BME280;26993;48.958;9.330;2022-12-18T00:40:57;99689.34;;;-8.82;96.10
41260;BME280;26993;48.958;9.330;2022-12-18T00:43:43;99688.44;;;-8.65;96.08
41260;BME280;26993;48.958;9.330;2022-12-18T00:46:29;99684.78;;;-8.68;95.71
41260;BME280;26993;48.958;9.330;2022-12-18T00:49:17;99697.13;;;-8.70;95.40
41260;BME280;26993;48.958;9.330;2022-12-18T00:52:06;99691.84;;;-8.64;93.29
41260;BME280;26993;48.958;9.330;2022-12-18T00:54:52;99683.47;;;-8.73;91.83
41260;BME280;26993;48.958;9.330;2022-12-18T00:57:39;99688.34;;;-8.93;91.99
41260;BME280;26993;48.958;9.330;2022-12-18T01:00:26;99686.44;;;-8.95;91.72
41260;BME280;26993;48.958;9.330;2022-12-18T01:03:13;99682.16;;;-8.87;91.90
41260;BME280;26993;48.958;9.330;2022-12-18T01:06:05;99688.22;;;-8.94;92.34
41260;BME280;26993;48.958;9.330;2022-12-18T01:08:53;99696.00;;;-9.00;92.79
41260;BME280;26993;48.958;9.330;2022-12-18T01:11:40;99695.81;;;-8.84;93.15
41260;BME280;26993;48.958;9.330;2022-12-18T01:14:27;99691.56;;;-8.94;92.05
41260;BME280;26993;48.958;9.330;2022-12-18T01:17:13;99690.69;;;-8.85;92.76
41260;BME280;26993;48.958;9.330;2022-12-18T01:20:00;99701.13;;;-8.81;92.71
41260;BME280;26993;48.958;9.330;2022-12-18T01:22:47;99704.63;;;-8.87;92.54
41260;BME280;26993;48.958;9.330;2022-12-18T01:25:36;99708.19;;;-8.94;93.14
41260;BME280;26993;48.958;9.330;2022-12-18T01:28:23;99706.09;;;-8.89;93.60
41260;BME280;26993;48.958;9.330;2022-12-18T01:31:16;99715.34;;;-8.88;93.39
41260;BME280;26993;48.958;9.330;2022-12-18T01:34:04;99720.22;;;-8.90;92.91
41260;BME280;26993;48.958;9.330;2022-12-18T01:36:51;99711.72;;;-8.83;92.49
41260;BME280;26993;48.958;9.330;2022-12-18T01:39:38;99711.09;;;-8.89;91.17
41260;BME280;26993;48.958;9.330;2022-12-18T01:42:26;99709.22;;;-9.01;90.66
41260;BME280;26993;48.958;9.330;2022-12-18T01:45:26;99716.72;;;-9.10;90.34
41260;BME280;26993;48.958;9.330;2022-12-18T01:48:12;99700.25;;;-9.16;90.54
41260;BME280;26993;48.958;9.330;2022-12-18T01:50:59;99707.16;;;-9.22;91.88
41260;BME280;26993;48.958;9.330;2022-12-18T01:53:47;99699.38;;;-9.08;92.14
41260;BME280;26993;48.958;9.330;2022-12-18T01:56:34;99710.53;;;-9.04;92.11
41260;BME280;26993;48.958;9.330;2022-12-18T01:59:22;99708.03;;;-9.04;92.30
41260;BME280;26993;48.958;9.330;2022-12-18T02:02:08;99710.38;;;-9.15;92.56
41260;BME280;26993;48.958;9.330;2022-12-18T02:04:55;99704.06;;;-9.11;92.10
41260;BME280;26993;48.958;9.330;2022-12-18T02:07:51;99708.31;;;-9.10;91.27
41260;BME280;26993;48.958;9.330;2022-12-18T02:10:46;99693.50;;;-9.35;91.43
41260;BME280;26993;48.958;9.330;2022-12-18T02:13:41;99695.38;;;-9.50;91.24
41260;BME280;26993;48.958;9.330;2022-12-18T02:16:36;99703.19;;;-9.47;92.11
41260;BME280;26993;48.958;9.330;2022-12-18T02:19:41;99714.16;;;-9.45;92.17
41260;BME280;26993;48.958;9.330;2022-12-18T02:22:37;99716.09;;;-9.42;91.86
41260;BME280;26993;48.958;9.330;2022-12-18T02:28:35;99720.19;;;-9.34;92.78
41260;BME280;26993;48.958;9.330;2022-12-18T02:31:27;99722.69;;;-9.43;93.07
41260;BME280;26993;48.958;9.330;2022-12-18T02:34:15;99712.97;;;-9.57;92.23
41260;BME280;26993;48.958;9.330;2022-12-18T02:37:07;99707.72;;;-9.34;92.33
41260;BME280;26993;48.958;9.330;2022-12-18T02:39:57;99710.06;;;-9.35;92.50
41260;BME280;26993;48.958;9.330;2022-12-18T02:42:45;99716.69;;;-9.27;92.62
41260;BME280;26993;48.958;9.330;2022-12-18T02:45:33;99719.03;;;-9.29;91.46
41260;BME280;26993;48.958;9.330;2022-12-18T02:48:23;99724.63;;;-9.22;91.32
41260;BME280;26993;48.958;9.330;2022-12-18T02:51:17;99721.69;;;-9.27;90.12
41260;BME280;26993;48.958;9.330;2022-12-18T02:54:10;99732.53;;;-9.35;89.69
41260;BME280;26993;48.958;9.330;2022-12-18T02:57:09;99757.06;;;-9.31;89.86
41260;BME280;26993;48.958;9.330;2022-12-18T03:00:03;99747.03;;;-9.58;89.41
41260;BME280;26993;48.958;9.330;2022-12-18T03:02:55;99743.19;;;-10.05;88.63
41260;BME280;26993;48.958;9.330;2022-12-18T03:05:47;99740.34;;;-10.50;90.17
41260;BME280;26993;48.958;9.330;2022-12-18T03:08:39;99733.94;;;-10.48;90.54
41260;BME280;26993;48.958;9.330;2022-12-18T03:11:30;99739.88;;;-10.22;90.91
41260;BME280;26993;48.958;9.330;2022-12-18T03:14:38;99743.06;;;-10.31;90.63
41260;BME280;26993;48.958;9.330;2022-12-18T03:17:28;99730.75;;;-10.30;91.41
41260;BME280;26993;48.958;9.330;2022-12-18T03:20:19;99738.69;;;-10.25;90.68
41260;BME280;26993;48.958;9.330;2022-12-18T03:23:10;99748.66;;;-10.00;91.17
41260;BME280;26993;48.958;9.330;2022-12-18T03:26:01;99748.78;;;-9.99;89.83
41260;BME280;26993;48.958;9.330;2022-12-18T03:28:52;99737.13;;;-10.16;90.18
41260;BME280;26993;48.958;9.330;2022-12-18T03:31:41;99742.34;;;-10.06;90.36
41260;BME280;26993;48.958;9.330;2022-12-18T03:34:30;99746.66;;;-9.78;90.03
41260;BME280;26993;48.958;9.330;2022-12-18T03:37:20;99749.28;;;-9.85;88.99
41260;BME280;26993;48.958;9.330;2022-12-18T03:40:07;99755.75;;;-9.88;89.07
41260;BME280;26993;48.958;9.330;2022-12-18T03:42:57;99756.41;;;-9.97;90.04
41260;BME280;26993;48.958;9.330;2022-12-18T03:45:50;99753.03;;;-10.07;90.04
41260;BME280;26993;48.958;9.330;2022-12-18T03:48:43;99748.53;;;-10.27;90.76
41260;BME280;26993;48.958;9.330;2022-12-18T03:51:37;99741.41;;;-10.15;91.60
41260;BME280;26993;48.958;9.330;2022-12-18T03:54:28;99741.06;;;-9.84;93.44
41260;BME280;26993;48.958;9.330;2022-12-18T03:57:17;99745.28;;;-9.50;94.15
41260;BME280;26993;48.958;9.330;2022-12-18T04:00:07;99742.25;;;-9.38;94.83
41260;BME280;26993;48.958;9.330;2022-12-18T04:02:55;99732.66;;;-9.51;95.55
41260;BME280;26993;48.958;9.330;2022-12-18T04:05:43;99739.69;;;-9.47;94.86
41260;BME280;26993;48.958;9.330;2022-12-18T04:08:32;99734.44;;;-9.50;95.29
41260;BME280;26993;48.958;9.330;2022-12-18T04:11:22;99738.38;;;-9.61;93.90
41260;BME280;26993;48.958;9.330;2022-12-18T04:14:08;99738.66;;;-9.67;94.24
41260;BME280;26993;48.958;9.330;2022-12-18T04:16:55;99737.78;;;-9.59;94.08
41260;BME280;26993;48.958;9.330;2022-12-18T04:19:41;99742.19;;;-9.65;93.23
41260;BME280;26993;48.958;9.330;2022-12-18T04:22:28;99751.59;;;-9.53;93.11
41260;BME280;26993;48.958;9.330;2022-12-18T04:25:15;99754.34;;;-9.59;92.26
41260;BME280;26993;48.958;9.330;2022-12-18T04:28:03;99750.66;;;-9.63;92.48
41260;BME280;26993;48.958;9.330;2022-12-18T04:30:50;99743.66;;;-9.58;91.31
41260;BME280;26993;48.958;9.330;2022-12-18T04:33:37;99746.13;;;-9.67;91.74
41260;BME280;26993;48.958;9.330;2022-12-18T04:36:23;99754.47;;;-9.66;91.45
41260;BME280;26993;48.958;9.330;2022-12-18T04:39:13;99758.25;;;-9.79;91.64
41260;BME280;26993;48.958;9.330;2022-12-18T04:42:02;99759.59;;;-9.74;92.61
41260;BME280;26993;48.958;9.330;2022-12-18T04:44:50;99751.09;;;-9.76;92.71
41260;BME280;26993;48.958;9.330;2022-12-18T04:47:37;99758.13;;;-9.72;93.61
41260;BME280;26993;48.958;9.330;2022-12-18T04:50:23;99756.25;;;-9.65;93.74
41260;BME280;26993;48.958;9.330;2022-12-18T04:53:10;99761.81;;;-9.68;93.49
41260;BME280;26993;48.958;9.330;2022-12-18T04:56:05;99760.38;;;-9.66;92.50
41260;BME280;26993;48.958;9.330;2022-12-18T04:58:52;99758.19;;;-9.54;93.03
41260;BME280;26993;48.958;9.330;2022-12-18T05:01:40;99751.31;;;-9.48;92.40
41260;BME280;26993;48.958;9.330;2022-12-18T05:04:27;99745.28;;;-9.41;92.82
41260;BME280;26993;48.958;9.330;2022-12-18T05:07:14;99751.19;;;-9.23;92.59
41260;BME280;26993;48.958;9.330;2022-12-18T05:10:00;99749.88;;;-9.28;92.53
41260;BME280;26993;48.958;9.330;2022-12-18T05:12:47;99748.69;;;-9.32;93.32
41260;BME280;26993;48.958;9.330;2022-12-18T05:15:51;99749.44;;;-9.24;92.98
41260;BME280;26993;48.958;9.330;2022-12-18T05:18:39;99755.34;;;-9.06;92.26
41260;BME280;26993;48.958;9.330;2022-12-18T05:21:26;99753.44;;;-9.00;91.87
41260;BME280;26993;48.958;9.330;2022-12-18T05:24:13;99748.44;;;-9.09;92.07
41260;BME280;26993;48.958;9.330;2022-12-18T05:27:00;99742.84;;;-9.06;92.30
41260;BME280;26993;48.958;9.330;2022-12-18T05:29:46;99746.38;;;-9.13;92.05
41260;BME280;26993;48.958;9.330;2022-12-18T05:32:33;99748.56;;;-9.25;92.48
41260;BME280;26993;48.958;9.330;2022-12-18T05:35:21;99754.31;;;-9.08;92.70
41260;BME280;26993;48.958;9.330;2022-12-18T05:38:08;99755.63;;;-9.12;92.28
41260;BME280;26993;48.958;9.330;2022-12-18T05:40:56;99748.13;;;-9.12;92.20
41260;BME280;26993;48.958;9.330;2022-12-18T05:43:43;99756.03;;;-9.33;91.64
41260;BME280;26993;48.958;9.330;2022-12-18T05:46:29;99762.22;;;-9.30;91.46
41260;BME280;26993;48.958;9.330;2022-12-18T05:49:16;99766.03;;;-9.25;92.40
41260;BME280;26993;48.958;9.330;2022-12-18T05:52:04;99774.41;;;-9.24;91.67
41260;BME280;26993;48.958;9.330;2022-12-18T05:54:51;99774.22;;;-9.34;91.22
41260;BME280;26993;48.958;9.330;2022-12-18T05:57:37;99780.84;;;-9.35;91.49
41260;BME280;26993;48.958;9.330;2022-12-18T06:00:24;99775.53;;;-9.38;91.47
41260;BME280;26993;48.958;9.330;2022-12-18T06:03:12;99767.88;;;-9.48;91.78
41260;BME280;26993;48.958;9.330;2022-12-18T06:05:59;99761.16;;;-9.49;92.42
41260;BME280;26993;48.958;9.330;2022-12-18T06:08:48;99765.88;;;-9.35;91.88
41260;BME280;26993;48.958;9.330;2022-12-18T06:11:36;99767.19;;;-9.30;92.62
41260;BME280;26993;48.958;9.330;2022-12-18T06:14:23;99763.22;;;-9.36;92.48
41260;BME280;26993;48.958;9.330;2022-12-18T06:17:09;99762.94;;;-9.39;92.25
41260;BME280;26993;48.958;9.330;2022-12-18T06:19:56;99761.91;;;-9.33;92.74
41260;BME280;26993;48.958;9.330;2022-12-18T06:22:43;99765.56;;;-9.29;92.22
41260;BME280;26993;48.958;9.330;2022-12-18T06:25:32;99766.78;;;-9.17;92.34
41260;BME280;26993;48.958;9.330;2022-12-18T06:28:18;99775.44;;;-9.13;91.71
41260;BME280;26993;48.958;9.330;2022-12-18T06:31:06;99774.09;;;-9.18;90.79
41260;BME280;26993;48.958;9.330;2022-12-18T06:33:52;99769.25;;;-9.26;91.20
41260;BME280;26993;48.958;9.330;2022-12-18T06:36:39;99773.63;;;-9.41;91.58
41260;BME280;26993;48.958;9.330;2022-12-18T06:39:27;99772.19;;;-9.38;91.37
41260;BME280;26993;48.958;9.330;2022-12-18T06:42:15;99775.69;;;-9.45;92.32
41260;BME280;26993;48.958;9.330;2022-12-18T06:45:01;99780.09;;;-9.34;92.37
41260;BME280;26993;48.958;9.330;2022-12-18T06:47:48;99775.09;;;-9.34;91.92
41260;BME280;26993;48.958;9.330;2022-12-18T06:50:35;99781.41;;;-9.46;92.19
41260;BME280;26993;48.958;9.330;2022-12-18T06:53:21;99776.25;;;-9.48;92.04
41260;BME280;26993;48.958;9.330;2022-12-18T06:56:08;99777.59;;;-9.43;92.30
41260;BME280;26993;48.958;9.330;2022-12-18T06:58:56;99786.50;;;-9.53;92.43
41260;BME280;26993;48.958;9.330;2022-12-18T07:01:43;99789.19;;;-9.43;92.69
41260;BME280;26993;48.958;9.330;2022-12-18T07:04:30;99793.88;;;-9.37;92.68
41260;BME280;26993;48.958;9.330;2022-12-18T07:07:16;99790.38;;;-9.31;92.34
41260;BME280;26993;48.958;9.330;2022-12-18T07:10:04;99789.78;;;-9.46;92.21
41260;BME280;26993;48.958;9.330;2022-12-18T07:12:50;99797.28;;;-9.28;92.14
41260;BME280;26993;48.958;9.330;2022-12-18T07:15:38;99808.00;;;-9.38;91.98
41260;BME280;26993;48.958;9.330;2022-12-18T07:18:25;99809.75;;;-9.37;91.92
41260;BME280;26993;48.958;9.330;2022-12-18T07:21:13;99815.13;;;-9.50;91.85
41260;BME280;26993;48.958;9.330;2022-12-18T07:24:00;99817.09;;;-9.38;92.67
41260;BME280;26993;48.958;9.330;2022-12-18T07:26:47;99814.41;;;-9.49;92.50
41260;BME280;26993;48.958;9.330;2022-12-18T07:29:34;99812.84;;;-9.39;92.88
41260;BME280;26993;48.958;9.330;2022-12-18T07:32:22;99816.38;;;-9.29;92.76
41260;BME280;26993;48.958;9.330;2022-12-18T07:35:08;99812.28;;;-9.19;92.06
41260;BME280;26993;48.958;9.330;2022-12-18T07:37:55;99821.97;;;-9.14;91.77
41260;BME280;26993;48.958;9.330;2022-12-18T07:40:42;99829.03;;;-9.18;92.32
41260;BME280;26993;48.958;9.330;2022-12-18T07:43:29;99835.31;;;-9.31;93.21
41260;BME280;26993;48.958;9.330;2022-12-18T07:46:16;99829.94;;;-9.09;94.08
41260;BME280;26993;48.958;9.330;2022-12-18T07:49:04;99835.16;;;-9.32;93.10
41260;BME280;26993;48.958;9.330;2022-12-18T07:51:51;99830.38;;;-9.04;93.21
41260;BME280;26993;48.958;9.330;2022-12-18T07:54:39;99838.19;;;-8.93;92.60
41260;BME280;26993;48.958;9.330;2022-12-18T07:57:26;99831.09;;;-9.14;92.55
41260;BME280;26993;48.958;9.330;2022-12-18T08:00:14;99834.19;;;-9.08;92.77
41260;BME280;26993;48.958;9.330;2022-12-18T08:03:01;99834.78;;;-9.02;92.37
41260;BME280;26993;48.958;9.330;2022-12-18T08:05:51;99830.25;;;-8.88;91.74
41260;BME280;26993;48.958;9.330;2022-12-18T08:08:38;99827.78;;;-8.80;92.19
41260;BME280;26993;48.958;9.330;2022-12-18T08:11:28;99837.59;;;-8.90;91.58
41260;BME280;26993;48.958;9.330;2022-12-18T08:14:15;99832.75;;;-8.88;92.38
41260;BME280;26993;48.958;9.330;2022-12-18T08:17:01;99834.50;;;-8.87;92.13
41260;BME280;26993;48.958;9.330;2022-12-18T08:19:48;99829.69;;;-8.68;92.18
41260;BME280;26993;48.958;9.330;2022-12-18T08:22:37;99828.94;;;-8.67;92.82
41260;BME280;26993;48.958;9.330;2022-12-18T08:25:24;99841.72;;;-8.38;92.19
41260;BME280;26993;48.958;9.330;2022-12-18T08:28:11;99841.09;;;-8.44;90.98
41260;BME280;26993;48.958;9.330;2022-12-18T08:30:57;99840.97;;;-8.28;91.75
41260;BME280;26993;48.958;9.330;2022-12-18T08:33:44;99838.75;;;-8.16;90.84
41260;BME280;26993;48.958;9.330;2022-12-18T08:36:31;99835.63;;;-8.22;90.60
41260;BME280;26993;48.958;9.330;2022-12-18T08:39:19;99831.50;;;-8.04;90.83
41260;BME280;26993;48.958;9.330;2022-12-18T08:42:05;99828.81;;;-7.88;90.60
41260;BME280;26993;48.958;9.330;2022-12-18T08:45:10;99834.13;;;-7.94;91.39
41260;BME280;26993;48.958;9.330;2022-12-18T08:47:57;99828.78;;;-7.79;91.09
41260;BME280;26993;48.958;9.330;2022-12-18T08:50:43;99828.31;;;-7.67;89.91
41260;BME280;26993;48.958;9.330;2022-12-18T08:53:30;99826.53;;;-7.68;90.26
41260;BME280;26993;48.958;9.330;2022-12-18T08:56:18;99819.97;;;-7.48;89.83
41260;BME280;26993;48.958;9.330;2022-12-18T08:59:05;99826.81;;;-7.65;90.24
41260;BME280;26993;48.958;9.330;2022-12-18T09:01:53;99827.09;;;-7.61;90.97
41260;BME280;26993;48.958;9.330;2022-12-18T09:04:40;99833.88;;;-7.60;90.77
41260;BME280;26993;48.958;9.330;2022-12-18T09:07:26;99822.03;;;-7.44;91.27
41260;BME280;26993;48.958;9.330;2022-12-18T09:10:13;99811.69;;;-7.38;90.83
41260;BME280;26993;48.958;9.330;2022-12-18T09:13:01;99804.81;;;-7.22;90.12
41260;BME280;26993;48.958;9.330;2022-12-18T09:15:49;99805.38;;;-7.43;91.36
41260;BME280;26993;48.958;9.330;2022-12-18T09:18:36;99810.78;;;-7.30;91.48
41260;BME280;26993;48.958;9.330;2022-12-18T09:21:23;99806.75;;;-7.28;91.88
41260;BME280;26993;48.958;9.330;2022-12-18T09:24:12;99807.88;;;-7.15;90.99
41260;BME280;26993;48.958;9.330;2022-12-18T09:26:59;99799.41;;;-7.07;90.63
41260;BME280;26993;48.958;9.330;2022-12-18T09:29:47;99807.63;;;-6.99;90.37
41260;BME280;26993;48.958;9.330;2022-12-18T09:32:33;99803.44;;;-6.90;90.36
41260;BME280;26993;48.958;9.330;2022-12-18T09:35:20;99793.97;;;-6.84;90.61
41260;BME280;26993;48.958;9.330;2022-12-18T09:38:08;99793.63;;;-6.78;90.01
41260;BME280;26993;48.958;9.330;2022-12-18T09:41:00;99786.78;;;-6.71;90.48
41260;BME280;26993;48.958;9.330;2022-12-18T09:43:52;99781.75;;;-6.71;90.65
41260;BME280;26993;48.958;9.330;2022-12-18T09:46:45;99786.22;;;-6.58;90.05
41260;BME280;26993;48.958;9.330;2022-12-18T09:49:36;99795.50;;;-6.57;90.05
41260;BME280;26993;48.958;9.330;2022-12-18T09:52:26;99792.31;;;-6.45;90.17
41260;BME280;26993;48.958;9.330;2022-12-18T09:55:21;99792.22;;;-6.37;90.82
41260;BME280;26993;48.958;9.330;2022-12-18T09:58:17;99776.91;;;-6.40;91.15
41260;BME280;26993;48.958;9.330;2022-12-18T10:01:10;99779.09;;;-6.24;90.97
41260;BME280;26993;48.958;9.330;2022-12-18T10:04:00;99769.22;;;-6.22;90.36
41260;BME280;26993;48.958;9.330;2022-12-18T10:06:52;99778.03;;;-6.17;90.32
41260;BME280;26993;48.958;9.330;2022-12-18T10:09:45;99772.19;;;-6.26;91.61
41260;BME280;26993;48.958;9.330;2022-12-18T10:12:42;99782.69;;;-6.11;91.92
41260;BME280;26993;48.958;9.330;2022-12-18T10:15:36;99783.22;;;-5.84;91.51
41260;BME280;26993;48.958;9.330;2022-12-18T10:18:36;99773.09;;;-5.65;90.98
41260;BME280;26993;48.958;9.330;2022-12-18T10:21:31;99764.31;;;-5.60;91.29
41260;BME280;26993;48.958;9.330;2022-12-18T10:24:26;99770.38;;;-5.27;91.01
41260;BME280;26993;48.958;9.330;2022-12-18T10:27:18;99784.19;;;-5.22;89.89
41260;BME280;26993;48.958;9.330;2022-12-18T10:30:13;99788.22;;;-5.14;91.17
41260;BME280;26993;48.958;9.330;2022-12-18T10:33:01;99794.38;;;-5.00;90.64
41260;BME280;26993;48.958;9.330;2022-12-18T10:35:50;99784.69;;;-4.74;89.85
41260;BME280;26993;48.958;9.330;2022-12-18T10:38:41;99778.63;;;-4.76;89.09
41260;BME280;26993;48.958;9.330;2022-12-18T10:41:28;99786.88;;;-4.57;89.29
41260;BME280;26993;48.958;9.330;2022-12-18T10:44:18;99775.53;;;-4.41;88.71
41260;BME280;26993;48.958;9.330;2022-12-18T10:47:11;99778.94;;;-4.41;88.58
41260;BME280;26993;48.958;9.330;2022-12-18T10:50:00;99781.13;;;-4.23;89.11
41260;BME280;26993;48.958;9.330;2022-12-18T10:52:54;99783.72;;;-4.11;88.99
41260;BME280;26993;48.958;9.330;2022-12-18T10:55:45;99787.03;;;-3.90;87.76
41260;BME280;26993;48.958;9.330;2022-12-18T10:58:34;99779.16;;;-4.05;87.40
41260;BME280;26993;48.958;9.330;2022-12-18T11:01:21;99765.59;;;-4.07;88.50
41260;BME280;26993;48.958;9.330;2022-12-18T11:04:09;99762.31;;;-4.06;88.66
41260;BME280;26993;48.958;9.330;2022-12-18T11:06:57;99765.31;;;-4.00;88.31
41260;BME280;26993;48.958;9.330;2022-12-18T11:09:59;99765.88;;;-3.92;88.78
41260;BME280;26993;48.958;9.330;2022-12-18T11:12:51;99769.69;;;-3.75;88.08
41260;BME280;26993;48.958;9.330;2022-12-18T11:15:40;99768.41;;;-3.70;87.36
41260;BME280;26993;48.958;9.330;2022-12-18T11:18:29;99763.66;;;-3.55;88.36
41260;BME280;26993;48.958;9.330;2022-12-18T11:21:16;99747.44;;;-3.59;87.54
41260;BME280;26993;48.958;9.330;2022-12-18T11:24:03;99745.72;;;-3.48;87.56
41260;BME280;26993;48.958;9.330;2022-12-18T11:26:50;99732.09;;;-3.28;86.86
41260;BME280;26993;48.958;9.330;2022-12-18T11:29:39;99733.75;;;-3.16;86.52
41260;BME280;26993;48.958;9.330;2022-12-18T11:32:31;99734.94;;;-3.23;86.98
41260;BME280;26993;48.958;9.330;2022-12-18T11:35:21;99724.66;;;-3.14;86.06
41260;BME280;26993;48.958;9.330;2022-12-18T11:38:19;99720.97;;;-2.96;85.69
41260;BME280;26993;48.958;9.330;2022-12-18T11:41:16;99723.25;;;-2.99;85.89
41260;BME280;26993;48.958;9.330;2022-12-18T11:44:32;99722.50;;;-2.98;85.94
41260;BME280;26993;48.958;9.330;2022-12-18T11:47:29;99717.88;;;-3.04;85.50
41260;BME280;26993;48.958;9.330;2022-12-18T11:50:22;99714.25;;;-3.07;86.13
41260;BME280;26993;48.958;9.330;2022-12-18T11:53:11;99712.91;;;-3.26;86.96
41260;BME280;26993;48.958;9.330;2022-12-18T11:56:17;99707.22;;;-3.23;85.96
41260;BME280;26993;48.958;9.330;2022-12-18T11:59:22;99714.69;;;-3.13;86.46
41260;BME280;26993;48.958;9.330;2022-12-18T12:02:21;99713.06;;;-3.00;85.61
41260;BME280;26993;48.958;9.330;2022-12-18T12:05:24;99711.75;;;-2.95;85.30
41260;BME280;26993;48.958;9.330;2022-12-18T12:08:19;99702.63;;;-3.05;85.87
41260;BME280;26993;48.958;9.330;2022-12-18T12:11:15;99695.63;;;-2.97;84.89
41260;BME280;26993;48.958;9.330;2022-12-18T12:14:16;99681.06;;;-2.90;84.42
41260;BME280;26993;48.958;9.330;2022-12-18T12:17:12;99684.75;;;-2.96;85.04
41260;BME280;26993;48.958;9.330;2022-12-18T12:20:05;99684.44;;;-2.89;85.28
41260;BME280;26993;48.958;9.330;2022-12-18T12:22:59;99676.09;;;-2.76;84.13
41260;BME280;26993;48.958;9.330;2022-12-18T12:25:51;99685.75;;;-2.82;84.27
41260;BME280;26993;48.958;9.330;2022-12-18T12:29:01;99679.97;;;-2.81;84.23
41260;BME280;26993;48.958;9.330;2022-12-18T12:32:00;99671.72;;;-2.79;84.13
41260;BME280;26993;48.958;9.330;2022-12-18T12:35:01;99677.19;;;-2.61;83.74
41260;BME280;26993;48.958;9.330;2022-12-18T12:37:59;99681.22;;;-2.51;83.06
41260;BME280;26993;48.958;9.330;2022-12-18T12:40:54;99680.91;;;-2.56;82.88
41260;BME280;26993;48.958;9.330;2022-12-18T12:43:44;99680.34;;;-2.40;83.32
41260;BME280;26993;48.958;9.330;2022-12-18T12:46:36;99684.16;;;-2.33;83.53
41260;BME280;26993;48.958;9.330;2022-12-18T12:49:26;99682.19;;;-2.25;82.52
41260;BME280;26993;48.958;9.330;2022-12-18T12:52:17;99682.28;;;-2.24;81.80
41260;BME280;26993;48.958;9.330;2022-12-18T12:55:26;99683.28;;;-2.21;82.20
41260;BME280;26993;48.958;9.330;2022-12-18T12:58:18;99682.28;;;-2.24;82.34
41260;BME280;26993;48.958;9.330;2022-12-18T13:01:14;99690.44;;;-2.28;82.48
41260;BME280;26993;48.958;9.330;2022-12-18T13:04:15;99697.06;;;-2.16;82.40
41260;BME280;26993;48.958;9.330;2022-12-18T13:07:12;99697.50;;;-2.10;82.76
41260;BME280;26993;48.958;9.330;2022-12-18T13:10:22;99692.72;;;-1.94;82.02
41260;BME280;26993;48.958;9.330;2022-12-18T13:13:11;99684.00;;;-2.11;81.59
41260;BME280;26993;48.958;9.330;2022-12-18T13:16:04;99683.13;;;-2.23;80.97
41260;BME280;26993;48.958;9.330;2022-12-18T13:18:53;99683.63;;;-2.41;81.63
41260;BME280;26993;48.958;9.330;2022-12-18T13:21:42;99691.22;;;-2.52;82.40
41260;BME280;26993;48.958;9.330;2022-12-18T13:24:30;99689.47;;;-2.53;81.88
41260;BME280;26993;48.958;9.330;2022-12-18T13:27:46;99687.19;;;-2.62;82.96
41260;BME280;26993;48.958;9.330;2022-12-18T13:30:49;99680.56;;;-2.60;82.70
41260;BME280;26993;48.958;9.330;2022-12-18T13:33:41;99679.06;;;-2.82;83.37
41260;BME280;26993;48.958;9.330;2022-12-18T13:36:33;99676.44;;;-2.72;83.18
41260;BME280;26993;48.958;9.330;2022-12-18T13:39:31;99677.53;;;-2.68;83.37
41260;BME280;26993;48.958;9.330;2022-12-18T13:42:38;99685.88;;;-2.81;83.97
41260;BME280;26993;48.958;9.330;2022-12-18T13:45:44;99668.88;;;-2.72;83.43
41260;BME280;26993;48.958;9.330;2022-12-18T13:48:35;99663.81;;;-2.60;83.27
41260;BME280;26993;48.958;9.330;2022-12-18T13:51:24;99664.22;;;-2.53;83.33
41260;BME280;26993;48.958;9.330;2022-12-18T13:54:18;99657.44;;;-2.66;83.70
41260;BME280;26993;48.958;9.330;2022-12-18T13:57:25;99664.34;;;-2.64;83.79
41260;BME280;26993;48.958;9.330;2022-12-18T14:00:24;99663.47;;;-2.64;83.77
41260;BME280;26993;48.958;9.330;2022-12-18T14:03:22;99664.25;;;-2.65;83.96
41260;BME280;26993;48.958;9.330;2022-12-18T14:06:13;99665.16;;;-2.65;83.54
41260;BME280;26993;48.958;9.330;2022-12-18T14:08:59;99664.56;;;-2.61;83.38
41260;BME280;26993;48.958;9.330;2022-12-18T14:11:47;99667.69;;;-2.77;83.61
41260;BME280;26993;48.958;9.330;2022-12-18T14:14:34;99676.09;;;-2.76;83.96
41260;BME280;26993;48.958;9.330;2022-12-18T14:17:22;99680.63;;;-2.72;83.71
41260;BME280;26993;48.958;9.330;2022-12-18T14:20:13;99681.16;;;-2.64;83.59
41260;BME280;26993;48.958;9.330;2022-12-18T14:23:02;99685.19;;;-2.90;84.27
41260;BME280;26993;48.958;9.330;2022-12-18T14:25:48;99687.19;;;-2.86;84.12
41260;BME280;26993;48.958;9.330;2022-12-18T14:28:43;99681.91;;;-2.89;83.88
41260;BME280;26993;48.958;9.330;2022-12-18T14:31:31;99681.59;;;-3.06;84.58
41260;BME280;26993;48.958;9.330;2022-12-18T14:34:18;99679.41;;;-2.89;84.06
41260;BME280;26993;48.958;9.330;2022-12-18T14:37:04;99676.88;;;-3.01;83.96
41260;BME280;26993;48.958;9.330;2022-12-18T14:39:55;99684.56;;;-2.99;84.49
41260;BME280;26993;48.958;9.330;2022-12-18T14:42:43;99677.09;;;-2.98;84.21
41260;BME280;26993;48.958;9.330;2022-12-18T14:45:35;99676.44;;;-3.07;84.21
41260;BME280;26993;48.958;9.330;2022-12-18T14:48:35;99683.34;;;-3.16;84.40
41260;BME280;26993;48.958;9.330;2022-12-18T14:51:26;99678.31;;;-3.16;84.92
41260;BME280;26993;48.958;9.330;2022-12-18T14:54:16;99683.44;;;-3.15;84.95
41260;BME280;26993;48.958;9.330;2022-12-18T14:57:06;99687.38;;;-3.30;85.63
41260;BME280;26993;48.958;9.330;2022-12-18T15:00:04;99684.16;;;-3.40;86.20
41260;BME280;26993;48.958;9.330;2022-12-18T15:02:53;99683.19;;;-3.30;85.12
41260;BME280;26993;48.958;9.330;2022-12-18T15:05:40;99684.50;;;-3.35;85.70